Time;durP1;ratioP1;P1;durP2;ratioP2;P2;SDS_P1;SDS_P2;PMS_P1;PMS_P2;Temp;Humidity;BMP_temperature;BMP_pressure;BME280_temperature;BME280_humidity;BME280_pressure;Samples;Min_cycle;Max_cycle;Signal;HPM_P1;HPM_P2
2022/12/22 03:26:28;;;;;;;;;5.67;4.00;;;;;13.49;72.81;100088.28;5030886;28;45421;-67
2022/12/22 03:28:54;;;;;;;;;4.67;1.33;;;;;13.53;72.96;100092.75;5015995;28;45392;-65
2022/12/22 03:31:19;;;;;;;;;4.00;0.67;;;;;13.53;72.31;100106.16;5025921;28;45351;-65
2022/12/22 03:33:45;;;;;;;;;5.67;1.00;;;;;13.66;72.58;100136.63;5032880;28;46801;-67
2022/12/22 03:36:10;;;;;;;;;4.00;2.00;;;;;13.55;72.31;100112.47;5033425;28;45500;-66
2022/12/22 03:38:35;;;;;;;;;1.00;1.00;;;;;13.49;72.65;100107.06;5032155;28;45659;-67
2022/12/22 03:41:01;;;;;;;;;6.33;3.00;;;;;13.48;72.80;100119.59;5033423;28;45449;-67
2022/12/22 03:48:41;;;;;;;;;4.67;0.33;;;;;13.57;72.23;100127.66;5028281;28;45407;-67
2022/12/22 03:51:07;;;;;;;;;2.33;1.67;;;;;13.42;72.33;100101.66;5033332;28;45482;-67
2022/12/22 03:53:33;;;;;;;;;0.00;0.00;;;;;13.54;71.60;100108.84;5032778;28;46422;-67
2022/12/22 03:55:58;;;;;;;;;1.67;1.00;;;;;13.46;70.92;100094.50;5033240;28;45380;-68
2022/12/22 03:58:23;;;;;;;;;3.00;1.67;;;;;13.42;71.03;100104.34;5033175;28;45465;-66
2022/12/22 04:00:49;;;;;;;;;4.00;1.00;;;;;13.50;70.87;100127.66;5028672;28;45380;-66
2022/12/22 04:03:14;;;;;;;;;0.67;0.67;;;;;13.53;71.57;100122.25;5029241;28;54851;-67
2022/12/22 04:05:40;;;;;;;;;2.33;1.00;;;;;13.53;71.74;100124.94;5031375;28;45412;-67
2022/12/22 04:08:05;;;;;;;;;1.67;1.00;;;;;13.48;71.46;100133.00;5033333;28;45342;-67
2022/12/22 04:13:16;;;;;;;;;2.00;2.00;;;;;13.44;71.36;100129.38;5032802;28;47709;-66
2022/12/22 04:15:41;;;;;;;;;2.00;0.00;;;;;13.47;71.72;100165.19;5032305;28;57342;-67
2022/12/22 04:18:07;;;;;;;;;3.33;2.00;;;;;13.39;71.56;100138.31;5033555;28;45434;-67
2022/12/22 04:20:33;;;;;;;;;0.33;0.33;;;;;13.43;71.45;100172.34;5032109;28;45391;-67
2022/12/22 04:22:58;;;;;;;;;4.33;2.00;;;;;13.44;71.62;100168.75;5032906;28;46281;-66
2022/12/22 04:25:25;;;;;;;;;3.67;0.67;;;;;13.47;71.30;100183.97;5036314;28;45724;-66
2022/12/22 04:27:50;;;;;;;;;2.67;1.00;;;;;13.24;72.13;100152.50;5036426;28;45509;-67
2022/12/22 04:30:16;;;;;;;;;3.00;1.33;;;;;13.39;71.72;100184.81;5036573;28;45316;-67
2022/12/22 04:32:42;;;;;;;;;0.00;0.00;;;;;13.32;71.69;100176.72;5036705;28;45632;-67
2022/12/22 04:35:09;;;;;;;;;0.00;0.00;;;;;13.38;71.20;100201.81;5035070;28;45358;-68
2022/12/22 04:37:35;;;;;;;;;1.33;0.00;;;;;13.38;70.72;100219.69;5030040;28;45375;-68
2022/12/22 04:40:00;;;;;;;;;4.67;1.00;;;;;13.32;71.21;100209.81;5032455;28;45624;-67
2022/12/22 04:42:25;;;;;;;;;1.33;1.33;;;;;13.25;71.21;100208.84;5029102;28;46495;-69
2022/12/22 04:44:50;;;;;;;;;1.00;1.00;;;;;13.43;71.36;100248.34;5031317;28;45471;-67
2022/12/22 04:47:16;;;;;;;;;2.00;1.00;;;;;13.32;70.70;100225.00;5018097;28;45491;-66
2022/12/22 04:49:42;;;;;;;;;0.00;0.00;;;;;13.36;70.95;100242.94;5029579;28;45421;-68
2022/12/22 04:52:07;;;;;;;;;2.00;0.33;;;;;13.40;70.88;100269.81;5034781;28;45598;-66
2022/12/22 04:54:33;;;;;;;;;0.67;0.00;;;;;13.44;70.62;100270.72;5036081;28;50916;-67
2022/12/22 04:56:58;;;;;;;;;2.00;0.33;;;;;13.47;70.50;100285.97;5035994;28;45454;-68
2022/12/22 04:59:24;;;;;;;;;1.00;0.00;;;;;13.45;70.54;100277.88;5036077;28;45650;-67
2022/12/22 05:01:50;;;;;;;;;1.00;0.00;;;;;13.47;70.70;100294.91;5019600;28;47101;-67
2022/12/22 05:04:15;;;;;;;;;0.00;0.00;;;;;13.46;70.84;100311.88;5019199;28;45349;-67
2022/12/22 05:06:40;;;;;;;;;0.00;0.00;;;;;13.28;70.00;100284.00;5035854;28;45511;-68
2022/12/22 05:09:06;;;;;;;;;0.00;0.00;;;;;13.33;71.00;100310.91;5035305;28;45398;-67
2022/12/22 05:11:32;;;;;;;;;0.67;0.00;;;;;13.32;71.06;100317.13;5035418;28;45388;-66
2022/12/22 05:13:58;;;;;;;;;1.33;0.00;;;;;13.20;70.77;100309.84;5033544;28;45509;-65
2022/12/22 05:16:23;;;;;;;;;0.00;0.00;;;;;13.37;71.23;100344.91;5035143;28;49608;-66
2022/12/22 05:18:48;;;;;;;;;1.00;0.00;;;;;13.32;70.50;100340.38;5035989;28;45383;-66
2022/12/22 05:21:17;;;;;;;;;2.00;0.00;;;;;13.34;70.59;100347.56;5032230;28;45500;-66
2022/12/22 05:23:44;;;;;;;;;2.00;0.00;;;;;13.33;70.47;100361.88;5030827;28;45521;-66
2022/12/22 05:26:10;;;;;;;;;1.00;0.00;;;;;13.33;70.22;100355.59;5034600;28;45576;-66
2022/12/22 05:28:35;;;;;;;;;0.00;0.00;;;;;13.25;70.90;100344.78;5032313;28;45390;-67
2022/12/22 05:31:09;;;;;;;;;0.67;0.00;;;;;13.33;70.25;100364.56;5035790;28;46013;-68
2022/12/22 05:33:35;;;;;;;;;0.00;0.00;;;;;13.38;70.21;100362.81;5035595;28;45498;-66
2022/12/22 05:36:01;;;;;;;;;0.33;0.00;;;;;13.31;70.14;100351.97;5030351;28;45380;-68
2022/12/22 05:38:26;;;;;;;;;0.00;0.00;;;;;13.34;69.40;100368.13;5035691;28;45428;-66
2022/12/22 05:40:51;;;;;;;;;0.00;0.00;;;;;13.41;69.28;100372.66;5032092;28;46754;-67
2022/12/22 05:43:17;;;;;;;;;0.00;0.00;;;;;13.42;69.45;100375.34;5035892;28;45307;-67
2022/12/22 05:45:46;;;;;;;;;0.00;0.00;;;;;13.42;69.31;100390.56;5029756;28;45277;-69
2022/12/22 05:48:12;;;;;;;;;0.00;0.00;;;;;13.36;69.86;100371.72;5034722;28;45546;-67
2022/12/22 05:50:38;;;;;;;;;1.00;1.00;;;;;13.36;69.07;100379.78;5035972;28;46097;-67
2022/12/22 05:53:05;;;;;;;;;0.67;0.00;;;;;13.40;69.73;100398.59;5018288;28;45839;-67
2022/12/22 05:55:31;;;;;;;;;0.00;0.00;;;;;13.43;69.55;100400.44;5032756;28;45446;-67
2022/12/22 05:58:00;;;;;;;;;1.00;0.67;;;;;13.38;69.08;100397.69;5018080;28;45432;-67
2022/12/22 06:00:27;;;;;;;;;0.00;0.00;;;;;13.44;69.90;100404.88;5034983;28;46649;-69
2022/12/22 06:02:52;;;;;;;;;0.00;0.00;;;;;13.46;69.82;100413.84;5035733;28;45375;-66
2022/12/22 06:05:17;;;;;;;;;2.33;0.00;;;;;13.42;70.14;100406.66;5016876;28;46116;-67
2022/12/22 06:07:43;;;;;;;;;3.33;2.00;;;;;13.48;70.46;100419.22;5035531;28;45487;-67
2022/12/22 06:10:10;;;;;;;;;0.00;0.00;;;;;13.45;70.94;100417.44;5033839;28;46214;-67
2022/12/22 06:12:35;;;;;;;;;0.00;0.00;;;;;13.42;70.73;100418.28;5031502;28;45438;-67
2022/12/22 06:15:00;;;;;;;;;0.00;0.00;;;;;13.35;71.31;100410.19;5032485;28;46034;-69
2022/12/22 06:17:26;;;;;;;;;1.00;1.00;;;;;13.31;72.05;100395.78;5034410;28;45793;-68
2022/12/22 06:19:51;;;;;;;;;0.00;0.00;;;;;13.48;72.28;100436.25;5034695;28;48016;-67
2022/12/22 06:22:16;;;;;;;;;1.00;0.00;;;;;13.47;72.61;100442.50;5032519;28;45475;-66
2022/12/22 06:24:42;;;;;;;;;4.00;2.67;;;;;13.38;73.98;100437.03;5031012;28;45619;-66
2022/12/22 06:27:07;;;;;;;;;1.00;1.00;;;;;13.23;74.58;100419.88;5032709;28;45481;-65
2022/12/22 06:29:33;;;;;;;;;2.00;1.67;;;;;12.87;75.19;100375.69;5031827;28;46271;-67
2022/12/22 06:31:58;;;;;;;;;2.00;0.00;;;;;13.19;76.00;100452.00;5034409;28;45467;-69
2022/12/22 06:34:24;;;;;;;;;0.00;0.00;;;;;13.14;76.82;100468.06;5033147;28;45565;-65
2022/12/22 06:36:49;;;;;;;;;0.00;0.00;;;;;13.13;77.33;100471.59;5031311;28;45296;-66
2022/12/22 06:39:15;;;;;;;;;3.00;1.00;;;;;13.11;78.42;100470.69;5035131;28;46532;-67
2022/12/22 06:44:25;;;;;;;;;3.00;2.00;;;;;13.07;79.08;100479.59;5028143;28;45366;-67
2022/12/22 06:46:51;;;;;;;;;3.00;3.00;;;;;12.86;78.89;100453.41;5031229;28;45746;-67
2022/12/22 06:49:16;;;;;;;;;0.00;0.00;;;;;13.04;78.66;100492.97;5033229;28;46646;-67
2022/12/22 06:51:42;;;;;;;;;2.00;2.00;;;;;13.03;79.63;100481.34;5034103;28;45388;-69
2022/12/22 06:54:07;;;;;;;;;0.33;0.33;;;;;13.06;79.65;100477.78;5034346;28;45386;-67
2022/12/22 06:56:32;;;;;;;;;3.67;3.33;;;;;13.14;79.08;100496.66;5014864;28;45588;-67
2022/12/22 06:58:58;;;;;;;;;5.00;4.00;;;;;13.04;78.76;100477.78;5031862;28;46276;-66
2022/12/22 07:01:23;;;;;;;;;4.00;3.00;;;;;13.15;78.32;100498.44;5011261;28;45482;-67
2022/12/22 07:03:49;;;;;;;;;8.33;5.67;;;;;13.04;78.14;100487.59;5034042;28;45391;-65
2022/12/22 07:06:17;;;;;;;;;7.67;7.00;;;;;13.08;77.83;100497.47;5034457;28;45328;-66
2022/12/22 07:08:43;;;;;;;;;9.33;5.00;;;;;13.13;77.88;100509.16;5033624;28;45575;-68
2022/12/22 07:11:08;;;;;;;;;5.33;2.33;;;;;13.03;77.85;100500.13;5033527;28;45495;-68
2022/12/22 07:13:34;;;;;;;;;5.00;3.33;;;;;13.03;77.68;100496.53;5034010;28;45558;-70
2022/12/22 07:16:04;;;;;;;;;11.67;4.33;;;;;13.02;77.70;100509.03;5031933;28;45553;-67
2022/12/22 07:18:32;;;;;;;;;10.33;6.33;;;;;12.93;77.41;100483.91;5031172;28;45772;-67
2022/12/22 07:20:58;;;;;;;;;3.00;3.00;;;;;13.09;77.23;100520.75;5033480;28;45390;-68
2022/12/22 07:23:24;;;;;;;;;46.50;35.50;;;;;13.05;77.82;100509.09;5031513;28;45489;-65
2022/12/22 07:25:50;;;;;;;;;8.33;4.33;;;;;12.98;77.85;100500.94;5029142;28;45757;-66
2022/12/22 07:28:15;;;;;;;;;10.00;6.00;;;;;13.13;77.80;100524.38;5033775;28;45669;-67
2022/12/22 07:30:41;;;;;;;;;4.00;4.00;;;;;13.04;76.64;100503.69;5029225;28;45488;-67
2022/12/22 07:33:06;;;;;;;;;11.33;5.00;;;;;13.09;77.38;100518.97;5032240;28;45590;-70
2022/12/22 07:35:31;;;;;;;;;6.67;3.00;;;;;13.13;77.25;100519.00;5013042;28;45457;-67
2022/12/22 07:37:57;;;;;;;;;4.67;4.00;;;;;13.23;76.92;100537.91;5032998;28;46615;-68
2022/12/22 07:40:22;;;;;;;;;7.33;5.67;;;;;13.21;76.36;100534.28;5027277;28;45426;-70
2022/12/22 07:42:48;;;;;;;;;13.67;5.00;;;;;13.23;76.30;100545.03;5027260;28;45497;-68
2022/12/22 07:45:18;;;;;;;;;9.00;6.00;;;;;13.16;75.92;100535.13;5034393;28;45419;-67
2022/12/22 07:47:45;;;;;;;;;9.67;3.67;;;;;13.23;75.97;100547.72;5028866;28;45441;-67
2022/12/22 07:50:31;;;;;;;;;9.33;6.33;;;;;13.14;75.93;100526.19;5030751;28;45376;-69
2022/12/22 07:53:02;;;;;;;;;15.00;7.00;;;;;13.26;75.83;100546.00;5025119;28;45436;-66
2022/12/22 07:55:35;;;;;;;;;8.00;5.67;;;;;12.77;74.91;100462.25;5037574;28;45369;-70
2022/12/22 07:58:00;;;;;;;;;11.33;7.33;;;;;13.30;75.79;100555.00;5036937;28;46418;-65
2022/12/22 08:00:26;;;;;;;;;8.67;5.00;;;;;13.30;75.31;100546.94;5035713;28;45559;-66
2022/12/22 08:02:54;;;;;;;;;15.33;9.33;;;;;13.23;74.59;100540.59;5031971;28;45541;-67
2022/12/22 08:05:21;;;;;;;;;14.00;5.33;;;;;13.26;74.25;100546.00;5036687;28;45400;-66
2022/12/22 08:07:48;;;;;;;;;7.67;6.00;;;;;13.18;73.54;100536.03;5034883;28;46439;-67
2022/12/22 08:10:14;;;;;;;;;7.33;5.67;;;;;13.34;73.85;100558.63;5036208;28;45563;-68
2022/12/22 08:12:39;;;;;;;;;11.33;7.00;;;;;13.33;74.10;100556.81;5029882;28;45442;-67
2022/12/22 08:15:06;;;;;;;;;13.00;7.33;;;;;13.33;73.57;100557.75;5036509;28;45519;-68
2022/12/22 08:17:32;;;;;;;;;14.67;9.00;;;;;13.28;73.20;100554.03;5034971;28;46337;-67
2022/12/22 08:19:57;;;;;;;;;14.00;9.00;;;;;13.39;74.04;100565.84;5031926;28;45516;-67
2022/12/22 08:22:23;;;;;;;;;12.33;7.67;;;;;13.27;72.87;100547.78;5034855;28;45669;-69
2022/12/22 08:24:53;;;;;;;;;13.33;7.33;;;;;13.40;72.91;100569.47;5036756;28;45473;-67
2022/12/22 08:27:41;;;;;;;;;8.00;7.67;;;;;13.30;73.42;100560.34;5035929;28;45750;-67
2022/12/22 08:30:08;;;;;;;;;13.33;9.67;;;;;13.36;72.51;100563.13;5036759;28;45580;-67
2022/12/22 08:32:36;;;;;;;;;14.00;8.33;;;;;13.43;72.01;100588.28;5030470;28;45399;-67
2022/12/22 08:35:03;;;;;;;;;12.67;9.33;;;;;13.47;72.60;100591.91;5028765;28;45383;-66
2022/12/22 08:37:32;;;;;;;;;13.00;7.00;;;;;13.45;72.06;100575.78;5035462;28;46871;-68
2022/12/22 08:40:03;;;;;;;;;13.33;8.67;;;;;13.37;72.56;100556.88;5017894;28;45683;-67
2022/12/22 08:42:29;;;;;;;;;8.33;6.67;;;;;13.45;71.72;100555.19;5029700;28;45410;-67
2022/12/22 08:44:55;;;;;;;;;11.33;7.33;;;;;13.59;71.54;100586.66;5036570;28;45513;-68
2022/12/22 08:47:21;;;;;;;;;12.33;9.67;;;;;13.60;71.04;100573.25;5035522;28;46201;-67
2022/12/22 08:49:48;;;;;;;;;15.00;9.33;;;;;13.56;70.97;100552.66;5036455;28;45594;-69
2022/12/22 08:52:14;;;;;;;;;21.33;9.67;;;;;13.54;70.71;100545.44;5030737;28;45314;-68
2022/12/22 08:54:39;;;;;;;;;15.00;7.33;;;;;13.72;70.94;100569.78;5035037;28;45504;-66
2022/12/22 08:57:04;;;;;;;;;13.00;7.00;;;;;13.53;71.05;100533.81;5008567;28;55159;-68
2022/12/22 08:59:30;;;;;;;;;12.00;7.00;;;;;13.72;70.49;100569.78;5036265;28;45535;-68
2022/12/22 09:01:55;;;;;;;;;11.67;8.00;;;;;13.71;70.71;100561.72;5032163;28;46064;-68
2022/12/22 09:04:24;;;;;;;;;12.33;6.33;;;;;13.70;70.60;100565.31;5033072;28;45538;-67
2022/12/22 09:06:51;;;;;;;;;15.67;8.00;;;;;13.73;70.35;100574.28;5014982;28;47008;-69
2022/12/22 09:09:17;;;;;;;;;10.67;7.33;;;;;13.66;70.17;100564.38;5028266;28;45706;-68
2022/12/22 09:11:42;;;;;;;;;14.67;8.67;;;;;13.72;70.13;100572.47;5031449;28;45471;-70
2022/12/22 09:14:09;;;;;;;;;10.00;9.00;;;;;13.73;70.56;100570.72;5033514;28;45429;-67
2022/12/22 09:16:35;;;;;;;;;10.67;7.67;;;;;13.66;70.40;100567.06;5028455;28;45629;-68
2022/12/22 09:19:02;;;;;;;;;17.33;10.00;;;;;13.62;70.84;100559.84;5030476;28;45585;-69
2022/12/22 09:21:28;;;;;;;;;12.00;7.67;;;;;13.55;70.65;100549.94;5015118;28;46021;-69
2022/12/22 09:23:54;;;;;;;;;14.00;8.33;;;;;13.67;70.68;100574.22;5032127;28;45538;-69
2022/12/22 09:26:22;;;;;;;;;13.00;9.33;;;;;13.68;70.16;100575.09;5031281;28;45534;-68
2022/12/22 09:28:48;;;;;;;;;14.67;10.33;;;;;13.73;70.36;100585.03;5031782;28;45607;-70
2022/12/22 09:31:14;;;;;;;;;9.67;7.33;;;;;13.71;70.35;100580.53;5030504;28;45498;-67
2022/12/22 09:33:39;;;;;;;;;11.33;4.33;;;;;13.75;69.41;100579.69;5034343;28;45426;-66
2022/12/22 09:36:06;;;;;;;;;9.33;7.67;;;;;13.63;70.05;100551.81;5028117;28;46494;-67
2022/12/22 09:38:32;;;;;;;;;11.00;8.33;;;;;13.77;70.43;100576.09;5030315;28;45191;-68
2022/12/22 09:40:57;;;;;;;;;13.33;9.67;;;;;13.72;69.68;100564.44;5038650;28;45457;-69
2022/12/22 09:43:29;;;;;;;;;9.00;7.00;;;;;13.80;69.56;100586.00;5040021;28;45534;-67
2022/12/22 09:45:57;;;;;;;;;20.67;12.00;;;;;13.78;69.82;100579.72;5015784;28;47051;-66
2022/12/22 09:48:31;;;;;;;;;12.67;10.67;;;;;13.85;69.71;100603.06;5043447;28;45321;-66
2022/12/22 09:50:58;;;;;;;;;16.00;9.33;;;;;13.79;69.70;100587.78;5039994;28;45454;-68
2022/12/22 09:53:23;;;;;;;;;16.67;9.33;;;;;13.86;70.34;100594.13;5041095;28;45451;-67
2022/12/22 09:55:50;;;;;;;;;15.67;9.00;;;;;13.87;70.19;100600.38;5045144;28;45608;-66
2022/12/22 09:58:30;;;;;;;;;19.67;9.33;;;;;13.83;70.41;100591.41;5016800;28;45442;-68
2022/12/22 10:01:04;;;;;;;;;10.33;6.33;;;;;13.89;69.67;100602.22;5034092;28;45575;-67
2022/12/22 10:03:51;;;;;;;;;23.33;15.67;;;;;13.90;70.54;100598.63;5035240;28;45543;-67
2022/12/22 10:06:29;;;;;;;;;13.67;8.00;;;;;13.95;69.90;100601.38;5029773;28;46386;-66
2022/12/22 10:08:54;;;;;;;;;15.00;9.33;;;;;13.89;70.23;100578.06;5033833;28;45499;-68
2022/12/22 10:11:20;;;;;;;;;10.67;7.67;;;;;13.88;70.04;100573.56;5029517;28;45364;-68
2022/12/22 10:13:45;;;;;;;;;14.67;7.67;;;;;13.95;69.67;100593.31;5032496;28;45446;-65
2022/12/22 10:16:27;;;;;;;;;18.67;9.33;;;;;13.96;69.91;100585.28;5045209;28;45651;-67
2022/12/22 10:19:08;;;;;;;;;14.67;12.33;;;;;13.97;69.99;100586.16;5049336;28;45226;-70
2022/12/22 10:21:33;;;;;;;;;9.00;8.33;;;;;13.84;69.80;100560.97;5049214;28;45258;-70
2022/12/22 10:23:59;;;;;;;;;10.67;8.33;;;;;13.98;70.05;100577.22;5051293;28;45085;-69
2022/12/22 10:26:28;;;;;;;;;16.00;10.67;;;;;13.97;69.95;100589.78;5045212;28;47007;-72
2022/12/22 10:29:00;;;;;;;;;17.67;9.00;;;;;14.02;69.85;100581.72;5048938;28;45475;-69
2022/12/22 10:31:28;;;;;;;;;21.67;7.67;;;;;13.96;69.59;100568.25;5020763;28;45574;-68
2022/12/22 10:33:56;;;;;;;;;21.33;12.00;;;;;14.08;69.75;100592.53;5028436;28;45473;-68
2022/12/22 10:36:31;;;;;;;;;11.67;9.67;;;;;14.09;69.66;100583.59;5033202;28;46875;-67
2022/12/22 10:39:03;;;;;;;;;11.00;7.33;;;;;13.99;69.15;100560.22;5033276;28;45435;-69
2022/12/22 10:41:42;;;;;;;;;18.00;11.33;;;;;13.98;69.56;100556.63;5033578;28;45464;-66
2022/12/22 10:44:08;;;;;;;;;12.67;8.00;;;;;14.15;68.77;100582.75;5029277;28;45618;-69
2022/12/22 10:46:40;;;;;;;;;21.67;12.67;;;;;14.12;68.90;100578.28;5032789;28;46410;-68
2022/12/22 10:49:16;;;;;;;;;17.67;9.33;;;;;14.15;68.83;100577.38;5032961;28;45537;-70
2022/12/22 10:51:44;;;;;;;;;14.67;8.67;;;;;14.10;68.86;100577.31;5028347;28;45238;-68
2022/12/22 10:54:34;;;;;;;;;15.67;11.00;;;;;14.10;68.99;100568.38;5016329;28;45502;-67
2022/12/22 10:57:21;;;;;;;;;20.33;9.33;;;;;14.17;68.96;100578.28;5037841;28;45457;-69
2022/12/22 10:59:59;;;;;;;;;21.00;13.50;;;;;14.18;68.91;100580.09;5028973;28;45434;-67
2022/12/22 11:02:37;;;;;;;;;18.67;9.33;;;;;14.20;69.06;100581.00;5034662;28;45655;-69
2022/12/22 11:05:08;;;;;;;;;19.00;10.00;;;;;14.21;68.68;100585.50;5016474;28;45283;-66
2022/12/22 11:07:37;;;;;;;;;13.33;10.67;;;;;14.23;68.98;100582.84;5032347;28;45773;-69
2022/12/22 11:10:18;;;;;;;;;17.00;12.33;;;;;14.26;68.65;100581.06;5029319;28;45285;-67
2022/12/22 11:13:13;;;;;;;;;13.00;11.00;;;;;14.25;68.64;100573.88;5013651;28;45438;-66
2022/12/22 11:16:01;;;;;;;;;18.33;13.33;;;;;14.29;68.49;100578.41;5010294;28;45497;-68
2022/12/22 11:18:44;;;;;;;;;13.33;8.33;;;;;14.30;68.48;100572.13;5011107;28;45399;-72
2022/12/22 11:21:19;;;;;;;;;15.00;8.67;;;;;14.33;68.40;100571.25;5009676;28;45343;-67
2022/12/22 11:24:21;;;;;;;;;12.00;9.67;;;;;14.30;68.39;100569.44;5026669;28;45424;-64
2022/12/22 11:26:46;;;;;;;;;16.67;10.00;;;;;14.34;67.56;100563.22;5012894;28;45516;-67
2022/12/22 11:29:21;;;;;;;;;20.00;11.33;;;;;14.38;68.42;100561.44;5015128;28;47043;-65
2022/12/22 11:32:15;;;;;;;;;16.67;7.67;;;;;14.36;68.16;100556.06;5006300;28;45495;-65
2022/12/22 11:34:53;;;;;;;;;17.67;11.00;;;;;14.42;67.99;100557.00;5015168;28;45709;-67
2022/12/22 11:37:28;;;;;;;;;14.67;7.33;;;;;14.40;67.88;100566.84;5017932;28;45323;-63
2022/12/22 11:39:56;;;;;;;;;11.33;8.00;;;;;14.36;67.96;100561.44;5011154;28;45599;-63
2022/12/22 11:42:42;;;;;;;;;15.67;11.00;;;;;14.35;67.99;100556.03;5016336;28;45493;-67
2022/12/22 11:45:26;;;;;;;;;19.00;11.67;;;;;14.36;68.18;100550.69;5017667;28;45410;-64
2022/12/22 11:48:14;;;;;;;;;20.67;12.00;;;;;14.32;68.18;100551.56;5013737;28;46337;-64
2022/12/22 11:50:53;;;;;;;;;19.67;12.67;;;;;14.39;68.06;100555.19;5014892;28;45518;-63
2022/12/22 11:53:30;;;;;;;;;17.00;10.33;;;;;14.40;68.02;100548.03;5016599;28;45265;-63
2022/12/22 11:56:12;;;;;;;;;14.67;12.00;;;;;14.30;67.91;100533.59;5014386;28;45363;-65
2022/12/22 11:58:56;;;;;;;;;16.67;13.00;;;;;14.42;67.97;100539.09;5013859;28;45423;-65
2022/12/22 12:02:02;;;;;;;;;21.33;13.33;;;;;14.43;68.13;100535.50;5010417;28;48233;-61
2022/12/22 12:04:46;;;;;;;;;18.00;13.67;;;;;14.46;68.00;100535.53;5028553;28;45577;-63
2022/12/22 12:07:23;;;;;;;;;15.67;10.33;;;;;14.48;67.11;100546.28;5013380;28;45418;-61
2022/12/22 12:10:18;;;;;;;;;13.33;9.33;;;;;14.49;67.60;100537.34;5014713;28;45450;-62
2022/12/22 12:12:53;;;;;;;;;21.67;11.00;;;;;14.49;67.45;100526.59;5008386;28;45574;-63
2022/12/22 12:15:24;;;;;;;;;13.00;11.67;;;;;14.47;67.08;100526.59;5009231;28;46563;-63
2022/12/22 12:18:07;;;;;;;;;24.00;14.33;;;;;14.50;67.95;100521.22;5012171;28;45404;-64
2022/12/22 12:20:39;;;;;;;;;14.50;11.00;;;;;14.53;67.30;100523.03;5013272;28;45497;-61
2022/12/22 12:23:23;;;;;;;;;16.33;12.67;;;;;14.53;68.00;100505.09;5029171;28;46013;-66
2022/12/22 12:26:07;;;;;;;;;21.67;12.00;;;;;14.55;67.59;100507.78;5014604;28;45490;-64
2022/12/22 12:28:56;;;;;;;;;22.33;12.67;;;;;14.55;67.29;100506.03;5014673;28;45508;-64
2022/12/22 12:31:30;;;;;;;;;13.33;8.33;;;;;14.51;67.23;100490.75;5023452;28;46471;-62
2022/12/22 12:34:00;;;;;;;;;23.25;18.25;;;;;14.46;67.23;100471.00;5029152;28;45352;-64
2022/12/22 12:36:28;;;;;;;;;18.67;12.67;;;;;14.62;67.56;100498.94;5025035;28;45300;-68
2022/12/22 12:39:15;;;;;;;;;21.00;12.33;;;;;14.55;67.17;100481.84;5021890;28;45664;-64
2022/12/22 12:42:04;;;;;;;;;13.67;11.00;;;;;14.58;67.71;100491.69;5013738;28;45522;-68
2022/12/22 12:44:33;;;;;;;;;12.67;11.00;;;;;14.54;67.36;100480.03;5029298;28;45325;-64
2022/12/22 12:47:25;;;;;;;;;12.00;8.00;;;;;14.53;67.85;100471.94;5009201;28;45256;-69
2022/12/22 12:50:27;;;;;;;;;13.33;9.00;;;;;14.50;67.88;100470.16;5011064;28;45519;-63
2022/12/22 12:52:56;;;;;;;;;22.33;8.33;;;;;14.49;68.21;100473.72;5017101;28;45407;-68
2022/12/22 12:55:29;;;;;;;;;21.00;13.33;;;;;14.50;68.14;100462.09;5015078;28;45473;-64
2022/12/22 12:57:56;;;;;;;;;13.00;9.33;;;;;14.51;68.17;100458.50;5014362;28;45445;-64
2022/12/22 13:00:31;;;;;;;;;15.00;9.00;;;;;14.50;67.87;100458.47;5009959;28;45604;-70
2022/12/22 13:03:22;;;;;;;;;13.33;9.33;;;;;14.44;68.38;100442.34;5012533;28;45447;-70
2022/12/22 13:05:49;;;;;;;;;11.67;8.67;;;;;14.43;68.79;100454.88;5004745;28;46064;-66
2022/12/22 13:08:28;;;;;;;;;11.00;8.67;;;;;14.43;69.29;100446.81;5015064;28;45528;-63
2022/12/22 13:10:53;;;;;;;;;15.33;11.33;;;;;14.41;70.00;100455.75;5017883;28;45580;-63
2022/12/22 13:13:21;;;;;;;;;8.33;6.33;;;;;14.36;70.45;100437.81;5039775;28;44946;-65
2022/12/22 13:16:08;;;;;;;;;14.67;9.00;;;;;14.35;70.80;100440.47;5032882;28;45595;-68
2022/12/22 13:18:33;;;;;;;;;20.33;7.00;;;;;14.30;70.97;100432.38;5029707;28;45545;-68
2022/12/22 13:21:04;;;;;;;;;15.67;5.67;;;;;14.29;71.71;100432.41;5036147;28;45450;-68
2022/12/22 13:23:42;;;;;;;;;19.00;14.33;;;;;14.30;71.80;100428.81;5039196;28;45229;-68
2022/12/22 13:26:24;;;;;;;;;13.33;10.00;;;;;14.15;72.24;100397.38;5046522;28;45594;-71
2022/12/22 13:29:10;;;;;;;;;18.67;8.67;;;;;14.17;72.45;100395.59;5033107;28;45464;-62
2022/12/22 13:31:41;;;;;;;;;20.33;10.00;;;;;14.15;72.39;100400.94;5019417;28;45491;-63
2022/12/22 13:34:33;;;;;;;;;11.00;9.67;;;;;14.23;72.63;100422.50;5035139;28;45748;-64
2022/12/22 13:37:25;;;;;;;;;17.33;10.00;;;;;13.86;72.96;100355.13;5030742;28;45505;-63
2022/12/22 13:40:30;;;;;;;;;19.00;12.33;;;;;14.18;73.40;100416.19;5028848;28;45543;-64
2022/12/22 13:43:14;;;;;;;;;15.67;9.67;;;;;14.12;73.83;100394.66;4989185;28;45578;-63
2022/12/22 13:45:43;;;;;;;;;17.33;11.67;;;;;14.03;73.34;100387.47;5034276;28;45518;-65
2022/12/22 13:48:15;;;;;;;;;12.33;10.00;;;;;14.00;74.05;100390.13;5042464;28;45712;-65
2022/12/22 13:50:52;;;;;;;;;17.00;10.33;;;;;14.06;73.90;100397.34;5043175;28;45316;-67
2022/12/22 13:53:32;;;;;;;;;10.33;7.67;;;;;14.02;74.29;100401.75;5029274;28;45333;-64
2022/12/22 13:55:57;;;;;;;;;14.67;8.33;;;;;13.85;74.43;100372.13;5032651;28;45614;-63
2022/12/22 13:58:29;;;;;;;;;12.00;9.67;;;;;13.97;74.57;100388.31;5029564;28;46270;-67
2022/12/22 14:01:10;;;;;;;;;17.67;10.00;;;;;13.97;75.06;100390.09;5015031;28;45507;-63
2022/12/22 14:03:37;;;;;;;;;17.67;9.67;;;;;13.96;74.79;100389.19;5034633;28;45444;-62
2022/12/22 14:06:18;;;;;;;;;12.67;8.00;;;;;13.94;75.17;100382.94;5034584;28;45466;-64
2022/12/22 14:08:43;;;;;;;;;16.33;9.67;;;;;13.94;75.17;100384.69;5034876;28;46466;-63
2022/12/22 14:11:09;;;;;;;;;13.33;8.00;;;;;13.85;75.45;100361.38;5034167;28;57951;-64
2022/12/22 14:13:34;;;;;;;;;11.00;7.00;;;;;13.86;75.70;100373.94;5032084;28;45527;-65
2022/12/22 14:16:03;;;;;;;;;6.67;5.67;;;;;13.86;75.39;100367.63;5030635;28;45603;-63
2022/12/22 14:18:31;;;;;;;;;13.33;9.00;;;;;13.83;75.55;100364.03;5028449;28;46123;-67
2022/12/22 14:20:58;;;;;;;;;13.00;9.33;;;;;13.83;75.97;100366.72;5034593;28;45459;-62
2022/12/22 14:23:29;;;;;;;;;10.00;8.67;;;;;13.67;76.54;100329.03;5029582;28;45503;-63
2022/12/22 14:25:55;;;;;;;;;12.67;7.00;;;;;13.80;76.21;100358.66;5024687;28;46222;-65
2022/12/22 14:28:30;;;;;;;;;14.33;11.33;;;;;13.80;76.51;100358.66;5033368;28;46506;-65
2022/12/22 14:30:58;;;;;;;;;12.67;8.00;;;;;13.80;76.54;100350.59;5030018;28;45391;-64
2022/12/22 14:33:26;;;;;;;;;12.67;8.33;;;;;13.78;76.80;100348.81;5033691;28;45401;-66
2022/12/22 14:36:14;;;;;;;;;12.33;4.33;;;;;13.82;77.05;100340.75;5034064;28;45379;-62
2022/12/22 14:38:42;;;;;;;;;11.00;5.67;;;;;13.83;77.30;100347.03;5029535;28;46924;-65
2022/12/22 14:41:41;;;;;;;;;11.33;7.00;;;;;13.81;77.00;100338.09;5032969;28;45578;-65
2022/12/22 14:44:15;;;;;;;;;13.00;10.33;;;;;13.80;77.50;100328.22;5029121;28;45590;-63
2022/12/22 14:46:43;;;;;;;;;13.00;7.00;;;;;13.81;77.01;100312.13;5030746;28;45471;-66
2022/12/22 14:49:15;;;;;;;;;14.00;9.00;;;;;13.81;77.56;100312.13;5014451;28;45635;-68
2022/12/22 14:51:41;;;;;;;;;11.00;8.00;;;;;13.77;78.03;100294.19;5033837;28;45449;-65
2022/12/22 14:54:18;;;;;;;;;10.00;7.00;;;;;13.83;77.37;100291.53;5033264;28;45430;-68
2022/12/22 14:56:51;;;;;;;;;8.67;7.67;;;;;13.88;77.26;100288.00;5028257;28;46173;-66
2022/12/22 14:59:27;;;;;;;;;11.00;7.67;;;;;13.86;76.97;100279.00;5028422;28;45443;-68
2022/12/22 15:02:00;;;;;;;;;16.00;8.33;;;;;13.92;77.78;100284.44;5033733;28;45438;-67
2022/12/22 15:04:27;;;;;;;;;11.00;8.00;;;;;13.90;77.33;100262.94;5029601;28;46081;-66
2022/12/22 15:07:04;;;;;;;;;10.67;6.00;;;;;13.93;77.67;100268.31;5029796;28;45554;-65
2022/12/22 15:09:30;;;;;;;;;13.33;4.67;;;;;13.73;76.95;100227.94;5025690;28;45332;-67
2022/12/22 15:12:03;;;;;;;;;10.67;8.00;;;;;13.91;77.52;100258.44;5033403;28;45407;-68